createdAt,value
2023-05-17T00:00:08.864Z,57.76
2023-05-17T00:05:08.319Z,57.77
2023-05-17T00:10:08.324Z,57.78
2023-05-17T00:15:08.322Z,57.79
2023-05-17T00:20:08.283Z,57.82
2023-05-17T00:25:08.265Z,57.82
2023-05-17T00:30:08.242Z,57.82
2023-05-17T00:35:08.289Z,57.82
2023-05-17T00:40:08.361Z,57.86
2023-05-17T00:45:08.314Z,57.84
2023-05-17T00:50:08.316Z,57.86
2023-05-17T00:55:08.315Z,57.87
2023-05-17T01:00:08.286Z,57.88
2023-05-17T01:05:08.646Z,57.88
2023-05-17T01:10:08.716Z,57.91
2023-05-17T01:15:08.721Z,57.91
2023-05-17T01:20:09.105Z,57.91
2023-05-17T01:25:08.329Z,57.93
2023-05-17T01:30:08.348Z,57.96
2023-05-17T01:35:08.383Z,57.96
2023-05-17T01:40:08.391Z,57.96
2023-05-17T01:45:08.380Z,57.98
2023-05-17T01:50:08.362Z,57.99
2023-05-17T01:55:08.367Z,57.97
2023-05-17T02:00:08.355Z,58.0
2023-05-17T02:05:08.441Z,58.01
2023-05-17T02:10:08.503Z,58.04
2023-05-17T02:15:08.497Z,58.02
2023-05-17T02:20:08.474Z,58.06
2023-05-17T02:25:08.517Z,58.05
2023-05-17T02:30:08.545Z,58.06
2023-05-17T02:35:08.556Z,58.06
2023-05-17T02:40:08.593Z,58.1
2023-05-17T02:45:08.582Z,58.08
2023-05-17T02:50:08.599Z,58.09
2023-05-17T02:55:08.591Z,58.11
2023-05-17T03:00:08.537Z,58.12
2023-05-17T03:05:08.572Z,58.12
2023-05-17T03:10:08.579Z,58.11
2023-05-17T03:15:08.604Z,58.12
2023-05-17T03:20:08.623Z,58.11
2023-05-17T03:25:08.571Z,58.12
2023-05-17T03:30:08.563Z,58.14
2023-05-17T03:35:08.582Z,58.13
2023-05-17T03:40:08.591Z,58.12
2023-05-17T03:45:08.590Z,58.13
2023-05-17T03:50:08.598Z,58.12
2023-05-17T03:55:08.603Z,58.13
2023-05-17T04:00:08.609Z,58.13
2023-05-17T04:05:03.104Z,58.11
2023-05-17T04:10:02.227Z,58.13
2023-05-17T04:15:02.382Z,58.15
2023-05-17T04:20:02.478Z,58.15
2023-05-17T04:25:02.532Z,58.16
2023-05-17T04:30:02.399Z,58.19
2023-05-17T04:35:02.818Z,58.19
2023-05-17T04:40:02.957Z,58.18
2023-05-17T04:45:02.060Z,58.19
2023-05-17T04:50:02.221Z,58.18
2023-05-17T04:55:02.464Z,58.19
2023-05-17T05:00:02.631Z,58.19
2023-05-17T05:05:02.901Z,58.15
2023-05-17T05:10:02.283Z,58.14
2023-05-17T05:15:02.475Z,58.12
2023-05-17T05:20:02.694Z,58.09
2023-05-17T05:25:02.869Z,58.11
2023-05-17T05:30:03.035Z,58.13
2023-05-17T05:35:02.165Z,58.13
2023-05-17T05:40:02.395Z,58.14
2023-05-17T05:45:02.543Z,58.13
2023-05-17T05:50:02.660Z,58.13
2023-05-17T05:55:02.679Z,58.09
2023-05-17T06:00:02.724Z,58.1
2023-05-17T06:05:02.757Z,58.06
2023-05-17T06:10:02.802Z,58.06
2023-05-17T06:15:02.976Z,58.03
2023-05-17T06:20:02.306Z,58.03
2023-05-17T06:25:02.390Z,58.0
2023-05-17T06:30:04.883Z,58.0
2023-05-17T06:35:02.611Z,57.97
2023-05-17T06:40:10.037Z,57.92
2023-05-17T06:45:02.343Z,57.92
2023-05-17T06:50:02.651Z,57.91
2023-05-17T06:55:02.919Z,57.89
2023-05-17T07:00:03.106Z,57.87
2023-05-17T07:05:02.405Z,57.86
2023-05-17T07:10:03.214Z,57.83
2023-05-17T07:15:02.515Z,57.82
2023-05-17T07:20:02.838Z,57.78
2023-05-17T07:25:02.176Z,57.76
2023-05-17T07:30:02.350Z,57.75
2023-05-17T07:35:02.536Z,57.71
2023-05-17T07:40:02.866Z,57.74
2023-05-17T07:45:03.015Z,57.74
2023-05-17T07:50:02.197Z,57.72
2023-05-17T07:55:02.471Z,57.72
2023-05-17T08:00:02.814Z,57.67
2023-05-17T08:05:02.950Z,57.64
2023-05-17T08:10:02.153Z,57.58
2023-05-17T08:15:02.301Z,57.58
2023-05-17T08:20:02.408Z,57.48
2023-05-17T08:25:02.506Z,57.41
2023-05-17T08:30:04.006Z,57.34
2023-05-17T08:35:02.517Z,57.32
2023-05-17T08:40:02.586Z,57.31
2023-05-17T08:45:02.712Z,57.28
2023-05-17T08:50:02.755Z,57.24
2023-05-17T08:55:02.926Z,57.24
2023-05-17T09:00:03.075Z,57.2
2023-05-17T09:05:02.456Z,57.2
2023-05-17T09:10:02.597Z,57.15
2023-05-17T09:15:02.824Z,57.15
2023-05-17T09:20:03.037Z,57.07
2023-05-17T09:25:02.173Z,56.97
2023-05-17T09:30:02.231Z,56.97
2023-05-17T09:35:02.790Z,56.97
2023-05-17T09:40:03.093Z,56.97
2023-05-17T09:45:02.231Z,56.89
2023-05-17T09:50:02.429Z,56.81
2023-05-17T09:55:02.645Z,56.69
2023-05-17T10:00:02.734Z,56.59
2023-05-17T10:05:03.161Z,56.59
2023-05-17T10:10:02.300Z,56.35
2023-05-17T10:15:02.643Z,56.35
2023-05-17T10:20:03.046Z,56.16
2023-05-17T10:25:02.480Z,56.12
2023-05-17T10:30:02.577Z,56.05
2023-05-17T10:35:11.419Z,56.05
2023-05-17T10:40:02.443Z,55.97
2023-05-17T10:45:02.573Z,55.81
2023-05-17T10:50:03.134Z,55.8
2023-05-17T10:55:02.303Z,55.73
2023-05-17T11:00:02.457Z,55.69
2023-05-17T11:05:02.732Z,55.63
2023-05-17T11:10:02.861Z,55.63
2023-05-17T11:15:02.920Z,55.42
2023-05-17T11:20:02.363Z,55.36
2023-05-17T11:25:02.589Z,55.25
2023-05-17T11:30:02.740Z,55.15
2023-05-17T11:35:02.995Z,55.08
2023-05-17T11:40:02.191Z,55.04
2023-05-17T11:45:02.268Z,54.92
2023-05-17T11:50:02.316Z,54.75
2023-05-17T11:55:02.439Z,54.75
2023-05-17T12:00:02.633Z,54.6
2023-05-17T12:05:02.931Z,54.41
2023-05-17T12:10:02.234Z,54.31
2023-05-17T12:15:02.399Z,54.27
2023-05-17T12:20:02.554Z,54.17
2023-05-17T12:25:02.739Z,53.95
2023-05-17T12:30:03.071Z,53.79
2023-05-17T12:35:02.257Z,53.56
2023-05-17T12:40:02.521Z,53.43
2023-05-17T12:45:02.660Z,53.32
2023-05-17T12:50:02.829Z,53.12
2023-05-17T12:55:03.160Z,52.87
2023-05-17T13:00:02.403Z,52.76
2023-05-17T13:05:02.686Z,52.76
2023-05-17T13:10:02.898Z,52.67
2023-05-17T13:15:03.046Z,52.7
2023-05-17T13:20:02.331Z,52.7
2023-05-17T13:25:02.919Z,52.75
2023-05-17T13:30:02.133Z,52.84
2023-05-17T13:35:02.316Z,52.86
2023-05-17T13:40:02.509Z,52.77
2023-05-17T13:45:02.545Z,52.77
2023-05-17T13:50:02.594Z,52.56
2023-05-17T13:55:02.730Z,52.4
2023-05-17T14:00:02.778Z,52.4
2023-05-17T14:05:02.986Z,52.38
2023-05-17T14:10:02.100Z,52.34
2023-05-17T14:15:02.199Z,52.32
2023-05-17T14:20:02.364Z,52.27
2023-05-17T14:25:02.437Z,52.21
2023-05-17T14:30:02.570Z,52.16
2023-05-17T14:35:02.829Z,52.16
2023-05-17T14:40:07.028Z,52.08
2023-05-17T14:45:02.293Z,52.0
2023-05-17T14:50:02.396Z,51.99
2023-05-17T14:55:02.513Z,51.99
2023-05-17T15:00:02.594Z,51.84
2023-05-17T15:05:02.779Z,51.84
2023-05-17T15:10:02.939Z,51.8
2023-05-17T15:15:02.068Z,51.8
2023-05-17T15:20:02.245Z,51.75
2023-05-17T15:25:02.553Z,51.74
2023-05-17T15:30:02.812Z,51.76
2023-05-17T15:35:03.117Z,51.76
2023-05-17T15:40:02.223Z,51.83
2023-05-17T15:45:02.348Z,51.84
2023-05-17T15:50:02.516Z,51.8
2023-05-17T15:55:02.778Z,51.8
2023-05-17T16:00:02.901Z,51.82
2023-05-17T16:05:04.297Z,51.76
2023-05-17T16:10:02.836Z,51.75
2023-05-17T16:15:03.081Z,51.76
2023-05-17T16:20:02.387Z,51.76
2023-05-17T16:25:02.791Z,51.74
2023-05-17T16:30:02.834Z,51.72
2023-05-17T16:35:02.867Z,51.73
2023-05-17T16:40:02.902Z,51.71
2023-05-17T16:45:02.940Z,51.69
2023-05-17T16:50:02.193Z,51.67
2023-05-17T16:55:02.560Z,51.6
2023-05-17T17:00:02.830Z,51.6
2023-05-17T17:05:02.221Z,51.55
2023-05-17T17:10:02.392Z,51.53
2023-05-17T17:15:02.441Z,51.53
2023-05-17T17:20:02.471Z,51.53
2023-05-17T17:25:02.651Z,51.71
2023-05-17T17:30:02.759Z,51.79
2023-05-17T17:35:02.923Z,51.87
2023-05-17T17:40:03.045Z,51.98
2023-05-17T17:45:02.158Z,52.03
2023-05-17T17:50:02.425Z,52.07
2023-05-17T17:55:02.662Z,52.13
2023-05-17T18:00:03.553Z,52.15
2023-05-17T18:05:03.033Z,52.21
2023-05-17T18:10:02.228Z,52.28
2023-05-17T18:15:02.485Z,52.33
2023-05-17T18:20:02.729Z,52.39
2023-05-17T18:25:02.979Z,52.44
2023-05-17T18:30:02.228Z,52.48
2023-05-17T18:35:02.506Z,52.54
2023-05-17T18:40:02.762Z,52.58
2023-05-17T18:45:02.902Z,52.62
2023-05-17T18:50:03.200Z,52.66
2023-05-17T18:55:02.369Z,52.69
2023-05-17T19:00:02.494Z,52.73
2023-05-17T19:05:02.757Z,52.78
2023-05-17T19:10:02.900Z,52.79
2023-05-17T19:15:03.182Z,52.86
2023-05-17T19:20:02.399Z,52.86
2023-05-17T19:25:02.458Z,52.93
2023-05-17T19:30:02.557Z,52.98
2023-05-17T19:35:02.848Z,53.03
2023-05-17T19:40:02.993Z,53.05
2023-05-17T19:45:02.108Z,53.09
2023-05-17T19:50:02.393Z,53.12
2023-05-17T19:55:02.490Z,53.17
2023-05-17T20:00:02.528Z,53.21
2023-05-17T20:05:02.554Z,53.24
2023-05-17T20:10:02.761Z,53.28
2023-05-17T20:15:02.850Z,53.29
2023-05-17T20:20:02.973Z,53.33
2023-05-17T20:25:02.078Z,53.35
2023-05-17T20:30:02.159Z,53.38
2023-05-17T20:35:02.267Z,53.38
2023-05-17T20:40:02.576Z,53.38
2023-05-17T20:45:02.644Z,53.49
2023-05-17T20:50:02.769Z,53.54
2023-05-17T20:55:02.812Z,53.53
2023-05-17T21:00:03.062Z,53.58
2023-05-17T21:05:21.952Z,53.63
2023-05-17T21:10:07.970Z,53.65
2023-05-17T21:15:16.889Z,53.65
2023-05-17T21:20:08.507Z,53.7
2023-05-17T21:25:08.519Z,53.74
2023-05-17T21:30:08.528Z,53.75
2023-05-17T21:35:08.515Z,53.78
2023-05-17T21:40:08.542Z,53.8
2023-05-17T21:45:08.899Z,53.85
2023-05-17T21:50:08.935Z,53.87
2023-05-17T21:55:07.925Z,53.87
2023-05-17T22:00:08.941Z,53.92
2023-05-17T22:05:07.990Z,53.94
2023-05-17T22:10:09.765Z,53.97
2023-05-17T22:15:08.175Z,53.97
2023-05-17T22:20:08.262Z,54.0
2023-05-17T22:25:08.256Z,54.0
2023-05-17T22:30:08.287Z,54.06
2023-05-17T22:35:08.324Z,54.06
2023-05-17T22:40:08.317Z,54.11
2023-05-17T22:45:08.317Z,54.14
2023-05-17T22:50:08.320Z,54.16
2023-05-17T22:55:08.380Z,54.16
2023-05-17T23:01:16.373Z,54.2
2023-05-17T23:05:08.395Z,54.23
2023-05-17T23:10:08.497Z,54.25
2023-05-17T23:15:08.531Z,54.23
2023-05-17T23:20:08.501Z,54.29
2023-05-17T23:25:08.465Z,54.32
2023-05-17T23:30:08.504Z,54.32
2023-05-17T23:35:08.469Z,54.34
2023-05-17T23:40:08.455Z,54.35
2023-05-17T23:45:08.463Z,54.37
2023-05-17T23:50:08.462Z,54.4
2023-05-17T23:55:08.442Z,54.41
